Terminal Aerodrome Forecast
Issued by NWS

Home | Current Version | Previous Version | Text Only | Print | Product List | Glossary On
Versions: 1 2 3 4 5 6 7 8 9 10 11 12 13 14 15 16 17 18 19 20 21 22 23 24 25 26 27
005
FTUS43 KLSX 210302 AAA
TAFSUS
TAF AMD
KSUS 210302Z 2103/2124 35010G20KT 3SM RA OVC008
     FM210900 34010G17KT 6SM -FZRA OVC010
     FM211300 35009KT P6SM OVC035
     FM211600 01009KT P6SM BKN030
     FM211800 02009KT P6SM BKN080=

USA.gov is the U.S. government's official web portal to all federal, state and local government web resources and services.